KBKW/BKW METAR and TAF weather

Enter ICAO airport designator
Station Type Date Time Source
KBKW METAR 2019/08/19 21:51 UTC NOAA

KBKW 192151Z AUTO 35005KT 10SM CLR 29/18 A3013 RMK AO2 SLP163 T02940183


Station Type Date Time Source
KBKW Decoded METAR 2019/08/19 21:51 UTC NOAA

RALEIGH COUNTY MEM AIRPORT , WV, United States (KBKW) 37-48N 081-07W 764M
Aug 19, 2019 - 05:51 PM EDT / 2019.08.19 2151 UTC
Wind: from the N (350 degrees) at 6 MPH (5 KT):0
Visibility: 10 mile(s):0
Sky conditions: clear
Temperature: 84.9 F (29.4 C)
Dew Point: 64.9 F (18.3 C)
Relative Humidity: 51%
Pressure (altimeter): 30.13 in. Hg (1020 hPa)
ob: KBKW 192151Z AUTO 35005KT 10SM CLR 29/18 A3013 RMK AO2 SLP163 T02940183
cycle: 22

Station Type Date Time Source
KBKW TAF 2019/08/19 18:33 UTC NOAA

TAF KBKW 191730Z 1918/2018 VRB03KT P6SM SCT040 SCT060
FM192100 28004KT P6SM VCTS SCT200CB
FM200000 00000KT P6SM SCT250
FM201300 00000KT P6SM SKC

Example: see airport list